Time;durP1;ratioP1;P1;durP2;ratioP2;P2;SDS_P1;SDS_P2;PMS_P1;PMS_P2;Temp;Humidity;BMP_temperature;BMP_pressure;BME280_temperature;BME280_humidity;BME280_pressure;Samples;Min_cycle;Max_cycle;Signal;HPM_P1;HPM_P2
2023/10/27 00:00:01;;;;;;;15.10;4.80;;;13.60;99.90;;;;;;5055616;28;20157;-82
2023/10/27 00:02:44;;;;;;;13.93;4.50;;;13.50;99.90;;;;;;5053927;28;20189;-85
2023/10/27 00:05:11;;;;;;;17.97;5.40;;;13.50;99.90;;;;;;5049363;28;20216;-84
2023/10/27 00:07:39;;;;;;;12.93;4.23;;;13.60;99.90;;;;;;5047107;28;20217;-83
2023/10/27 00:10:07;;;;;;;14.17;4.80;;;13.70;99.90;;;;;;5049704;28;20197;-85
2023/10/27 00:12:32;;;;;;;13.73;4.90;;;13.60;99.90;;;;;;5049942;28;20469;-85
2023/10/27 00:14:59;;;;;;;12.90;4.67;;;13.40;99.90;;;;;;5047545;28;20189;-85
2023/10/27 00:17:24;;;;;;;13.97;4.80;;;13.50;99.90;;;;;;5037623;28;20190;-84
2023/10/27 00:19:50;;;;;;;18.77;4.90;;;13.50;99.90;;;;;;5057127;28;20159;-83
2023/10/27 00:22:16;;;;;;;17.17;6.13;;;13.50;99.90;;;;;;5050959;28;20631;-85
2023/10/27 00:24:42;;;;;;;13.50;5.03;;;13.50;99.90;;;;;;5039745;28;20188;-83
2023/10/27 00:27:08;;;;;;;16.57;5.17;;;13.50;99.90;;;;;;5040737;28;20210;-85
2023/10/27 00:29:33;;;;;;;12.57;4.97;;;13.50;99.90;;;;;;5038254;28;20253;-84
2023/10/27 00:31:59;;;;;;;15.37;4.93;;;13.40;99.90;;;;;;5037650;28;20174;-85
2023/10/27 00:34:25;;;;;;;12.00;4.20;;;13.50;99.90;;;;;;5037176;28;20170;-85
2023/10/27 00:36:50;;;;;;;15.23;5.00;;;13.50;99.90;;;;;;5037083;28;20193;-84
2023/10/27 00:39:16;;;;;;;13.33;4.70;;;13.40;99.90;;;;;;5038068;28;20169;-85
2023/10/27 00:41:41;;;;;;;17.00;5.03;;;13.50;99.90;;;;;;5036903;28;20207;-84
2023/10/27 00:44:07;;;;;;;14.90;5.07;;;13.60;99.90;;;;;;5035352;28;20186;-84
2023/10/27 00:46:37;;;;;;;16.27;5.30;;;13.60;99.90;;;;;;5037716;28;20304;-85
2023/10/27 00:49:02;;;;;;;16.47;5.70;;;13.60;99.90;;;;;;5038993;28;20183;-85
2023/10/27 00:51:28;;;;;;;17.33;5.13;;;13.60;99.90;;;;;;5038908;28;20202;-85
2023/10/27 00:53:55;;;;;;;18.10;5.37;;;13.60;99.90;;;;;;5038982;28;20167;-85
2023/10/27 00:56:21;;;;;;;18.47;5.40;;;13.60;99.90;;;;;;5039079;28;20624;-84
2023/10/27 00:58:47;;;;;;;13.20;4.67;;;13.60;99.90;;;;;;5037412;28;20187;-84
2023/10/27 01:01:17;;;;;;;11.73;5.73;;;13.70;99.90;;;;;;5041231;28;20171;-84
2023/10/27 01:03:43;;;;;;;14.30;5.23;;;13.80;99.90;;;;;;5037948;28;20168;-85
2023/10/27 01:06:08;;;;;;;14.03;5.37;;;13.80;99.90;;;;;;5037804;28;20215;-84
2023/10/27 01:08:34;;;;;;;16.67;5.53;;;13.80;99.90;;;;;;5037583;28;20210;-83
2023/10/27 01:11:01;;;;;;;10.50;5.13;;;13.80;99.90;;;;;;5036994;28;20177;-83
2023/10/27 01:13:26;;;;;;;15.00;5.10;;;13.70;99.90;;;;;;5035904;28;20179;-84
2023/10/27 01:15:52;;;;;;;9.90;4.83;;;13.70;99.90;;;;;;5035320;28;20187;-84
2023/10/27 01:18:18;;;;;;;14.30;5.23;;;13.70;99.90;;;;;;5035735;28;20184;-83
2023/10/27 01:20:43;;;;;;;11.83;4.90;;;13.80;99.90;;;;;;5036978;28;20192;-83
2023/10/27 01:23:09;;;;;;;15.50;5.43;;;13.70;99.90;;;;;;5036677;28;20599;-84
2023/10/27 01:25:35;;;;;;;13.17;4.87;;;13.70;99.90;;;;;;5024639;28;20195;-84
2023/10/27 01:28:02;;;;;;;14.27;5.20;;;13.70;99.90;;;;;;5036388;28;20179;-82
2023/10/27 01:30:28;;;;;;;11.07;5.10;;;13.70;99.90;;;;;;5036563;28;20159;-82
2023/10/27 01:32:54;;;;;;;11.33;4.80;;;13.80;99.90;;;;;;5036479;28;20190;-82
2023/10/27 01:35:19;;;;;;;15.47;5.00;;;13.90;99.90;;;;;;5034033;28;20175;-83
2023/10/27 01:37:45;;;;;;;11.90;5.00;;;14.00;99.90;;;;;;5031010;28;20180;-82
2023/10/27 01:40:12;;;;;;;12.67;5.23;;;14.00;99.90;;;;;;5031135;28;20170;-83
2023/10/27 01:42:40;;;;;;;15.97;5.27;;;14.00;99.90;;;;;;5020104;28;20176;-83
2023/10/27 01:45:09;;;;;;;10.30;4.23;;;14.00;99.90;;;;;;5016953;28;20179;-84
2023/10/27 01:47:34;;;;;;;13.73;5.50;;;14.00;99.90;;;;;;5016054;28;20264;-83
2023/10/27 01:50:04;;;;;;;13.00;5.37;;;14.00;99.90;;;;;;5017090;28;20626;-84
2023/10/27 01:52:30;;;;;;;14.13;5.17;;;14.00;99.90;;;;;;5017131;28;20170;-84
2023/10/27 01:54:57;;;;;;;13.30;4.80;;;14.00;99.90;;;;;;5016131;28;20509;-84
2023/10/27 01:57:24;;;;;;;10.30;5.00;;;13.90;99.90;;;;;;5015921;28;20227;-84
2023/10/27 01:59:52;;;;;;;10.83;5.20;;;13.70;99.90;;;;;;5017400;28;20173;-84
2023/10/27 02:02:18;;;;;;;13.60;4.83;;;13.70;99.90;;;;;;5017589;28;20187;-86
2023/10/27 02:04:44;;;;;;;9.90;4.30;;;13.70;99.90;;;;;;5016510;28;20186;-83
2023/10/27 02:07:10;;;;;;;13.80;5.10;;;13.50;99.90;;;;;;5016306;28;20216;-83
2023/10/27 02:09:36;;;;;;;12.47;5.10;;;13.40;99.90;;;;;;5018286;28;20699;-83
2023/10/27 02:12:03;;;;;;;12.63;4.70;;;13.40;99.90;;;;;;5036275;28;20168;-84
2023/10/27 02:14:28;;;;;;;11.30;4.80;;;13.40;99.90;;;;;;5039726;28;20187;-83
2023/10/27 02:16:55;;;;;;;11.63;5.47;;;13.40;99.90;;;;;;5041174;28;20179;-82
2023/10/27 02:19:20;;;;;;;13.57;5.07;;;13.60;99.90;;;;;;5040777;28;20169;-83
2023/10/27 02:21:47;;;;;;;9.83;3.50;;;13.50;99.90;;;;;;5034561;28;20167;-82
2023/10/27 02:24:13;;;;;;;10.87;4.30;;;13.30;99.90;;;;;;5033540;28;20176;-83
2023/10/27 02:26:38;;;;;;;10.93;4.10;;;13.40;99.90;;;;;;5032037;28;20206;-84
2023/10/27 02:29:10;;;;;;;8.07;3.77;;;13.30;99.90;;;;;;5024476;28;20181;-83
2023/10/27 02:31:38;;;;;;;11.53;4.67;;;13.30;99.90;;;;;;5020403;28;20166;-83
2023/10/27 02:34:07;;;;;;;10.03;4.77;;;13.30;99.90;;;;;;5021105;28;20178;-84
2023/10/27 02:37:01;;;;;;;8.20;4.07;;;13.20;99.90;;;;;;5022461;28;20225;-84
2023/10/27 02:39:27;;;;;;;9.03;3.70;;;13.10;99.90;;;;;;5030019;28;20169;-83
2023/10/27 02:41:53;;;;;;;9.07;3.80;;;13.00;99.90;;;;;;5040110;28;20163;-80
2023/10/27 02:44:19;;;;;;;9.07;3.10;;;13.00;99.90;;;;;;5037901;28;20537;-83
2023/10/27 02:46:44;;;;;;;9.93;3.27;;;13.00;99.90;;;;;;5036807;28;20237;-79
2023/10/27 02:49:11;;;;;;;9.10;3.27;;;12.90;99.90;;;;;;5030591;28;20203;-84
2023/10/27 02:51:37;;;;;;;9.93;3.27;;;12.90;99.90;;;;;;5021592;28;20166;-83
2023/10/27 02:54:03;;;;;;;8.60;2.67;;;12.80;99.90;;;;;;5018402;28;20190;-83
2023/10/27 02:56:29;;;;;;;8.67;2.40;;;12.70;99.90;;;;;;5017367;28;20170;-84
2023/10/27 02:58:55;;;;;;;5.27;2.00;;;12.70;99.90;;;;;;5001905;28;20184;-84
2023/10/27 03:01:20;;;;;;;6.07;2.43;;;12.70;99.90;;;;;;5019963;28;20213;-85
2023/10/27 03:03:46;;;;;;;6.93;2.87;;;12.70;99.90;;;;;;5019957;28;20537;-85
2023/10/27 03:06:13;;;;;;;5.70;2.53;;;12.80;99.90;;;;;;5038104;28;20227;-82
2023/10/27 03:08:40;;;;;;;7.97;2.97;;;12.80;99.90;;;;;;5035652;28;20487;-83
2023/10/27 03:11:06;;;;;;;8.20;2.90;;;12.70;99.90;;;;;;5034730;28;20170;-82
2023/10/27 03:13:37;;;;;;;5.33;2.57;;;12.70;99.90;;;;;;5036149;28;20174;-81
2023/10/27 03:16:04;;;;;;;6.63;2.50;;;12.70;99.90;;;;;;5036640;28;20178;-85
2023/10/27 03:18:29;;;;;;;5.33;2.63;;;12.80;99.90;;;;;;5033136;28;20193;-84
2023/10/27 03:20:56;;;;;;;7.23;2.77;;;12.80;99.90;;;;;;5034120;28;20226;-84
2023/10/27 03:23:24;;;;;;;7.13;2.83;;;12.90;99.90;;;;;;5035551;28;20174;-82
2023/10/27 03:25:50;;;;;;;7.20;2.60;;;12.80;99.90;;;;;;5036868;28;20194;-84
2023/10/27 03:28:16;;;;;;;8.10;2.97;;;12.80;99.90;;;;;;5022121;28;20636;-83
2023/10/27 03:30:44;;;;;;;4.97;2.20;;;12.70;99.90;;;;;;5023089;28;20176;-82
2023/10/27 03:33:09;;;;;;;4.93;2.20;;;12.70;99.90;;;;;;5026028;28;20582;-83
2023/10/27 03:35:40;;;;;;;6.80;2.70;;;12.60;99.90;;;;;;5019831;28;20174;-84
2023/10/27 03:38:13;;;;;;;7.13;2.30;;;12.70;99.90;;;;;;5017906;28;20611;-84
2023/10/27 03:40:41;;;;;;;5.93;2.47;;;12.80;99.90;;;;;;5018564;28;20165;-85
2023/10/27 03:43:08;;;;;;;7.13;2.37;;;12.70;99.90;;;;;;5017981;28;20205;-83
2023/10/27 03:45:34;;;;;;;7.70;2.50;;;12.70;99.90;;;;;;5016966;28;20165;-84
2023/10/27 03:48:00;;;;;;;7.63;2.60;;;12.80;99.90;;;;;;5018298;28;20268;-84
2023/10/27 03:50:27;;;;;;;7.33;3.07;;;12.70;99.90;;;;;;4999993;28;20233;-83
2023/10/27 03:52:53;;;;;;;7.80;2.57;;;12.70;99.90;;;;;;5005749;28;20171;-83
2023/10/27 03:55:19;;;;;;;4.57;2.13;;;12.60;99.90;;;;;;4996990;28;20274;-83
2023/10/27 03:57:44;;;;;;;5.70;2.47;;;12.70;99.90;;;;;;4997144;28;20171;-84
2023/10/27 04:00:11;;;;;;;7.63;2.90;;;12.70;99.90;;;;;;4997082;28;20175;-84
2023/10/27 04:02:36;;;;;;;8.17;3.20;;;12.70;99.90;;;;;;4994764;28;20178;-84
2023/10/27 04:05:04;;;;;;;9.23;3.47;;;12.70;99.90;;;;;;4999109;28;20161;-83
2023/10/27 04:07:29;;;;;;;7.73;3.10;;;12.80;99.90;;;;;;4997450;28;20265;-83
2023/10/27 04:09:55;;;;;;;9.17;3.20;;;12.90;99.90;;;;;;4996868;28;20162;-83
2023/10/27 04:12:21;;;;;;;6.33;3.30;;;12.80;99.90;;;;;;4996953;28;20171;-84
2023/10/27 04:14:48;;;;;;;10.00;3.30;;;12.80;99.90;;;;;;4995903;28;20668;-84
2023/10/27 04:17:14;;;;;;;6.87;3.60;;;12.80;99.90;;;;;;4998660;28;20175;-83
2023/10/27 04:19:45;;;;;;;9.93;3.73;;;13.00;99.90;;;;;;4999133;28;20174;-84
2023/10/27 04:22:11;;;;;;;8.17;3.43;;;13.00;99.90;;;;;;4998998;28;20177;-84
2023/10/27 04:24:37;;;;;;;7.90;2.90;;;12.80;99.90;;;;;;4999674;28;20258;-84
2023/10/27 04:27:04;;;;;;;6.03;3.20;;;12.80;99.90;;;;;;4997903;28;20236;-84
2023/10/27 04:29:30;;;;;;;8.93;3.00;;;12.70;99.90;;;;;;4998790;28;20171;-84
2023/10/27 04:31:56;;;;;;;10.20;3.37;;;12.70;99.90;;;;;;4998816;28;20175;-84
2023/10/27 04:34:22;;;;;;;6.93;2.80;;;12.90;99.90;;;;;;4996669;28;20175;-85
2023/10/27 04:36:48;;;;;;;9.00;3.10;;;12.90;99.90;;;;;;4998329;28;20209;-83
2023/10/27 04:39:14;;;;;;;6.23;2.60;;;13.00;99.90;;;;;;4980354;28;20670;-82
2023/10/27 04:41:40;;;;;;;6.10;2.63;;;12.90;99.90;;;;;;4997335;28;20175;-84
2023/10/27 04:44:06;;;;;;;6.80;2.50;;;12.80;99.90;;;;;;4995818;28;20175;-83
2023/10/27 04:46:31;;;;;;;7.93;2.60;;;12.70;99.90;;;;;;4997974;28;20207;-84
2023/10/27 04:48:57;;;;;;;4.53;2.30;;;12.70;99.90;;;;;;4996067;28;20214;-84
2023/10/27 04:51:26;;;;;;;6.93;2.50;;;12.60;99.90;;;;;;4998433;28;20159;-82
2023/10/27 04:53:52;;;;;;;5.20;2.37;;;12.60;99.90;;;;;;4999629;28;20242;-84
2023/10/27 04:56:18;;;;;;;4.47;2.27;;;12.50;99.90;;;;;;4998648;28;20183;-85
2023/10/27 04:58:44;;;;;;;4.73;2.20;;;12.50;99.90;;;;;;4996408;28;20183;-83
2023/10/27 05:01:11;;;;;;;5.40;2.40;;;12.40;99.90;;;;;;4997336;28;20269;-84
2023/10/27 05:03:38;;;;;;;5.90;2.50;;;12.60;99.90;;;;;;4997396;28;20236;-85
2023/10/27 05:06:08;;;;;;;4.17;2.50;;;12.60;99.90;;;;;;4997016;28;20215;-83
2023/10/27 05:08:40;;;;;;;4.90;2.97;;;12.60;99.90;;;;;;4997297;28;20189;-84
2023/10/27 05:11:06;;;;;;;5.03;2.90;;;12.50;99.90;;;;;;4998679;28;20261;-85
2023/10/27 05:13:32;;;;;;;6.13;3.03;;;12.50;99.90;;;;;;4999075;28;20171;-84
2023/10/27 05:15:59;;;;;;;5.63;3.70;;;12.50;99.90;;;;;;4998441;28;20698;-84
2023/10/27 05:18:25;;;;;;;5.23;3.43;;;12.60;99.90;;;;;;4997080;28;20897;-82
2023/10/27 05:20:53;;;;;;;5.70;3.20;;;12.50;99.90;;;;;;4996639;28;20686;-85
2023/10/27 05:23:18;;;;;;;5.37;3.73;;;12.50;99.90;;;;;;4996059;28;20182;-84
2023/10/27 05:25:46;;;;;;;6.00;4.20;;;12.50;99.90;;;;;;4996451;28;20175;-84
2023/10/27 05:28:12;;;;;;;5.57;3.70;;;12.40;99.90;;;;;;4997112;28;20178;-84
2023/10/27 05:30:38;;;;;;;7.07;4.50;;;12.30;99.90;;;;;;4996208;28;20219;-82
2023/10/27 05:33:03;;;;;;;7.37;4.90;;;12.40;99.90;;;;;;5004129;28;20169;-83
2023/10/27 05:35:29;;;;;;;7.50;5.33;;;12.40;99.90;;;;;;5010966;28;20166;-85
2023/10/27 05:37:55;;;;;;;9.97;6.00;;;12.40;99.90;;;;;;5001787;28;20260;-86
2023/10/27 05:40:23;;;;;;;10.47;5.97;;;12.50;99.90;;;;;;5019738;28;20536;-86
2023/10/27 05:42:49;;;;;;;11.73;6.70;;;12.50;99.90;;;;;;5025303;28;20201;-84
2023/10/27 05:45:15;;;;;;;10.33;6.67;;;12.40;99.90;;;;;;5037368;28;20626;-83
2023/10/27 05:47:41;;;;;;;9.90;6.17;;;12.50;99.90;;;;;;5040448;28;20255;-84
2023/10/27 05:50:08;;;;;;;12.50;6.93;;;12.50;99.90;;;;;;5042439;28;20181;-85
2023/10/27 05:52:34;;;;;;;10.67;7.27;;;12.60;99.90;;;;;;5049791;28;20185;-84
2023/10/27 05:55:00;;;;;;;10.40;7.43;;;12.50;99.90;;;;;;5058380;28;20193;-87
2023/10/27 05:57:28;;;;;;;10.53;7.70;;;12.50;99.90;;;;;;5050469;28;20244;-87
2023/10/27 05:59:54;;;;;;;10.90;7.83;;;12.50;99.90;;;;;;5044936;28;20174;-84
2023/10/27 06:02:21;;;;;;;8.80;7.50;;;12.40;99.90;;;;;;5042852;28;20199;-82
2023/10/27 06:04:47;;;;;;;10.80;7.20;;;12.40;99.90;;;;;;5045179;28;20207;-84
2023/10/27 06:07:15;;;;;;;11.57;7.97;;;12.30;99.90;;;;;;5048133;28;20252;-82
2023/10/27 06:09:41;;;;;;;13.50;8.23;;;12.40;99.90;;;;;;5056333;28;20215;-80
2023/10/27 06:12:09;;;;;;;11.93;8.33;;;12.30;99.90;;;;;;5049367;28;20592;-85
2023/10/27 06:14:34;;;;;;;10.73;8.47;;;12.20;99.90;;;;;;5058793;28;20193;-84
2023/10/27 06:17:00;;;;;;;9.77;8.30;;;12.20;99.90;;;;;;5052726;28;20179;-85
2023/10/27 06:19:26;;;;;;;11.57;8.67;;;12.20;99.90;;;;;;5030184;28;20225;-86
2023/10/27 06:21:59;;;;;;;11.33;8.33;;;12.20;99.90;;;;;;5010998;28;20169;-87
2023/10/27 06:24:24;;;;;;;13.77;8.80;;;12.30;99.90;;;;;;5034062;28;20721;-85
2023/10/27 06:26:50;;;;;;;15.47;9.67;;;12.10;99.90;;;;;;5016755;28;20246;-84
2023/10/27 06:29:17;;;;;;;14.60;9.33;;;12.20;99.90;;;;;;5030992;28;20198;-84
2023/10/27 06:31:43;;;;;;;13.70;9.30;;;12.20;99.90;;;;;;5013824;28;20200;-86
2023/10/27 06:34:09;;;;;;;12.10;9.33;;;12.20;99.90;;;;;;5022068;28;20181;-86
2023/10/27 06:36:35;;;;;;;13.40;9.37;;;12.20;99.90;;;;;;5025632;28;20178;-84
2023/10/27 06:39:01;;;;;;;11.83;9.27;;;12.10;99.90;;;;;;5032963;28;20185;-86
2023/10/27 06:41:27;;;;;;;17.10;10.43;;;12.20;99.90;;;;;;5028105;28;20189;-85
2023/10/27 06:43:52;;;;;;;11.53;8.83;;;12.20;99.90;;;;;;5033753;28;20189;-86
2023/10/27 06:46:18;;;;;;;12.80;9.07;;;12.20;99.90;;;;;;5024704;28;20217;-87
2023/10/27 06:48:44;;;;;;;14.67;8.47;;;12.30;99.90;;;;;;5023853;28;20225;-85
2023/10/27 06:51:09;;;;;;;15.67;8.87;;;12.20;99.90;;;;;;5023034;28;20181;-86
2023/10/27 06:53:36;;;;;;;13.97;9.17;;;12.30;99.90;;;;;;5031622;28;20161;-86
2023/10/27 06:56:04;;;;;;;19.73;10.03;;;12.30;99.90;;;;;;5029205;28;20195;-87
2023/10/27 06:58:29;;;;;;;14.87;9.40;;;12.40;99.90;;;;;;5048492;28;20176;-85
2023/10/27 07:00:56;;;;;;;13.07;8.30;;;12.50;99.90;;;;;;5047779;28;20212;-83
2023/10/27 07:03:22;;;;;;;13.73;8.10;;;12.40;99.90;;;;;;5043668;28;20188;-81
2023/10/27 07:05:49;;;;;;;21.77;7.83;;;12.40;99.90;;;;;;5032328;28;20229;-83
2023/10/27 07:08:14;;;;;;;14.47;7.90;;;12.50;99.90;;;;;;5037125;28;20185;-83
2023/10/27 07:10:43;;;;;;;15.87;8.33;;;12.50;99.90;;;;;;5047310;28;20162;-85
2023/10/27 07:13:09;;;;;;;14.70;7.60;;;12.50;99.90;;;;;;5043657;28;20192;-85
2023/10/27 07:15:38;;;;;;;13.87;6.90;;;12.50;99.90;;;;;;5044155;28;20177;-85
2023/10/27 07:18:03;;;;;;;10.57;6.50;;;12.50;99.90;;;;;;5035496;28;20207;-83
2023/10/27 07:20:29;;;;;;;9.53;6.30;;;12.50;99.90;;;;;;5029356;28;20174;-85
2023/10/27 07:22:56;;;;;;;12.47;6.00;;;12.60;99.90;;;;;;5030618;28;20172;-86
2023/10/27 07:25:22;;;;;;;12.83;6.97;;;12.50;99.90;;;;;;5033330;28;20181;-86
2023/10/27 07:27:48;;;;;;;10.17;5.47;;;12.50;99.90;;;;;;5034084;28;20232;-86
2023/10/27 07:30:14;;;;;;;10.70;6.47;;;12.40;99.90;;;;;;5035395;28;20182;-84
2023/10/27 07:32:39;;;;;;;11.03;6.23;;;12.50;99.90;;;;;;5029969;28;20186;-86
2023/10/27 07:35:06;;;;;;;11.23;6.10;;;12.50;99.90;;;;;;5022921;28;20182;-85
2023/10/27 07:37:32;;;;;;;8.13;4.93;;;12.50;99.90;;;;;;5033624;28;20276;-87
2023/10/27 07:39:59;;;;;;;10.87;5.00;;;12.50;99.90;;;;;;5026759;28;20174;-84
2023/10/27 07:42:25;;;;;;;10.93;5.13;;;12.50;99.90;;;;;;5029218;28;20171;-85
2023/10/27 07:44:54;;;;;;;15.17;5.93;;;12.50;99.90;;;;;;5035083;28;20211;-85
2023/10/27 07:47:20;;;;;;;10.10;4.93;;;12.60;99.90;;;;;;5038901;28;20763;-86
2023/10/27 07:49:48;;;;;;;8.30;4.70;;;12.50;99.90;;;;;;5033503;28;20645;-86
2023/10/27 07:52:14;;;;;;;8.80;4.57;;;12.50;99.90;;;;;;5030679;28;20242;-84
2023/10/27 07:54:41;;;;;;;10.20;4.83;;;12.50;99.90;;;;;;5030984;28;20234;-83
2023/10/27 07:57:07;;;;;;;9.83;5.80;;;12.50;99.90;;;;;;5027477;28;20240;-84
2023/10/27 07:59:33;;;;;;;12.70;5.13;;;12.60;99.90;;;;;;5026756;28;20182;-85
2023/10/27 08:02:00;;;;;;;11.43;5.60;;;12.60;99.90;;;;;;5023354;28;20660;-84
2023/10/27 08:04:26;;;;;;;16.60;6.40;;;12.60;99.90;;;;;;5025012;28;20198;-86
2023/10/27 08:06:52;;;;;;;15.53;6.23;;;12.60;99.90;;;;;;5023944;28;20396;-82
2023/10/27 08:09:20;;;;;;;11.87;6.43;;;12.70;99.90;;;;;;5027233;28;20223;-85
2023/10/27 08:11:48;;;;;;;14.97;6.60;;;12.80;99.90;;;;;;5039750;28;20177;-84
2023/10/27 08:14:14;;;;;;;15.57;7.37;;;12.80;99.90;;;;;;5045508;28;20221;-85
2023/10/27 08:16:40;;;;;;;11.57;6.57;;;12.80;99.90;;;;;;5039598;28;20194;-83
2023/10/27 08:19:06;;;;;;;14.30;6.43;;;12.80;99.90;;;;;;5052192;28;20185;-85
2023/10/27 08:21:32;;;;;;;10.20;6.97;;;12.80;99.90;;;;;;5047504;28;20171;-83
2023/10/27 08:23:58;;;;;;;12.40;7.47;;;12.90;99.90;;;;;;5037447;28;20186;-84
2023/10/27 08:26:23;;;;;;;13.97;7.67;;;12.90;99.90;;;;;;5031829;28;20236;-86
2023/10/27 08:28:49;;;;;;;18.17;7.70;;;13.00;99.90;;;;;;5035273;28;20194;-86
2023/10/27 08:31:17;;;;;;;18.10;8.20;;;13.00;99.90;;;;;;5041214;28;20182;-85
2023/10/27 08:33:43;;;;;;;14.20;8.27;;;13.10;99.90;;;;;;5038019;28;20200;-84
2023/10/27 08:36:11;;;;;;;15.70;8.03;;;13.10;99.90;;;;;;5027376;28;20181;-84
2023/10/27 08:38:39;;;;;;;15.40;8.33;;;13.10;99.90;;;;;;5023024;28;20589;-84
2023/10/27 08:41:24;;;;;;;18.60;8.80;;;13.20;99.90;;;;;;5026562;28;20162;-83
2023/10/27 08:43:51;;;;;;;15.90;9.23;;;13.20;99.90;;;;;;5028297;28;20271;-82
2023/10/27 08:46:17;;;;;;;16.43;9.00;;;13.20;99.90;;;;;;5022701;28;20205;-82
2023/10/27 08:48:44;;;;;;;17.50;8.73;;;13.20;99.90;;;;;;5038468;28;20220;-80
2023/10/27 08:51:11;;;;;;;14.53;8.17;;;13.30;99.90;;;;;;5033992;28;20189;-80
2023/10/27 08:53:40;;;;;;;18.53;9.27;;;13.20;99.90;;;;;;5029225;28;20201;-81
2023/10/27 08:56:13;;;;;;;12.43;8.73;;;13.20;99.90;;;;;;5027593;28;20219;-83
2023/10/27 08:58:53;;;;;;;16.20;8.53;;;13.30;99.90;;;;;;5019392;28;20194;-83
2023/10/27 09:01:19;;;;;;;14.13;8.03;;;13.30;99.90;;;;;;5029199;28;20203;-85
2023/10/27 09:04:07;;;;;;;15.57;8.50;;;13.40;99.90;;;;;;5022966;28;20583;-81
2023/10/27 09:06:34;;;;;;;17.57;8.60;;;13.50;99.90;;;;;;5024610;28;20268;-83
2023/10/27 09:09:03;;;;;;;14.73;8.20;;;13.50;99.90;;;;;;5016739;28;20186;-81
2023/10/27 09:11:29;;;;;;;16.23;8.13;;;13.30;99.90;;;;;;5026718;28;20181;-82
2023/10/27 09:13:54;;;;;;;17.77;8.10;;;13.40;99.90;;;;;;5033431;28;20171;-81
2023/10/27 09:16:27;;;;;;;14.33;7.40;;;13.50;99.90;;;;;;5034835;28;21340;-81
2023/10/27 09:18:55;;;;;;;11.80;6.43;;;13.50;99.90;;;;;;5029046;28;20711;-81
2023/10/27 09:21:32;;;;;;;19.33;7.87;;;13.40;99.90;;;;;;5021678;28;20196;-79
2023/10/27 09:23:59;;;;;;;15.33;6.53;;;13.30;99.90;;;;;;5008251;28;20402;-81
2023/10/27 09:26:29;;;;;;;14.97;6.50;;;13.30;99.90;;;;;;5027840;28;20225;-82
2023/10/27 09:29:03;;;;;;;13.67;6.70;;;13.20;99.90;;;;;;5019690;28;20205;-82
2023/10/27 09:31:35;;;;;;;12.97;6.17;;;13.10;99.90;;;;;;5023567;28;20173;-84
2023/10/27 09:34:32;;;;;;;10.80;5.67;;;13.20;99.90;;;;;;5024601;28;20200;-81
2023/10/27 09:36:59;;;;;;;11.57;5.37;;;13.00;99.90;;;;;;5021966;28;20624;-85
2023/10/27 09:39:26;;;;;;;11.97;5.47;;;13.00;99.90;;;;;;5023245;28;20244;-81
2023/10/27 09:42:07;;;;;;;9.87;5.50;;;13.00;99.90;;;;;;5016164;28;20193;-83
2023/10/27 09:44:40;;;;;;;13.63;5.50;;;13.00;99.90;;;;;;5014020;28;20182;-80
2023/10/27 09:47:14;;;;;;;10.60;5.13;;;13.10;99.90;;;;;;5023444;28;20229;-80
2023/10/27 09:49:41;;;;;;;12.27;6.10;;;13.00;99.90;;;;;;5026109;28;20280;-84
2023/10/27 09:52:11;;;;;;;11.87;4.97;;;13.00;99.90;;;;;;5023102;28;20170;-82
2023/10/27 09:54:37;;;;;;;11.90;4.83;;;12.90;99.90;;;;;;5023795;28;20177;-81
2023/10/27 09:57:05;;;;;;;10.83;4.37;;;13.00;99.90;;;;;;5019753;28;20252;-84
2023/10/27 09:59:31;;;;;;;16.07;5.30;;;13.10;99.90;;;;;;5017943;28;20228;-82
2023/10/27 10:02:05;;;;;;;8.80;4.60;;;13.00;99.90;;;;;;5020515;28;20174;-82
2023/10/27 10:04:50;;;;;;;13.13;5.10;;;13.10;99.90;;;;;;5026841;28;20178;-83
2023/10/27 10:07:32;;;;;;;8.83;4.50;;;13.10;99.90;;;;;;5024188;28;20202;-81
2023/10/27 10:10:18;;;;;;;9.70;4.17;;;13.10;99.90;;;;;;5022299;28;20207;-82
2023/10/27 10:13:06;;;;;;;11.50;4.70;;;13.20;99.90;;;;;;5026225;28;20167;-81
2023/10/27 10:15:43;;;;;;;12.03;4.27;;;13.20;99.90;;;;;;5022521;28;20190;-80
2023/10/27 10:18:35;;;;;;;9.97;4.30;;;13.20;99.90;;;;;;5015946;28;20184;-81
2023/10/27 10:21:02;;;;;;;8.47;4.50;;;13.20;99.90;;;;;;5021320;28;20181;-85
2023/10/27 10:23:37;;;;;;;12.03;4.90;;;13.20;99.90;;;;;;5009280;28;20182;-81
2023/10/27 10:26:03;;;;;;;8.30;4.30;;;13.30;99.90;;;;;;5026444;28;20182;-81
2023/10/27 10:28:30;;;;;;;11.43;4.73;;;13.30;99.90;;;;;;5032687;28;20172;-79
2023/10/27 10:31:09;;;;;;;9.33;4.20;;;13.30;99.90;;;;;;5033728;28;20173;-79
2023/10/27 10:33:37;;;;;;;10.73;4.40;;;13.40;99.90;;;;;;5035892;28;20178;-81
2023/10/27 10:36:15;;;;;;;12.20;4.87;;;13.40;99.90;;;;;;5037986;28;20486;-80
2023/10/27 10:38:55;;;;;;;10.43;4.23;;;13.30;99.90;;;;;;5038199;28;20173;-80
2023/10/27 10:41:41;;;;;;;10.73;4.27;;;13.30;99.90;;;;;;5039655;28;20192;-80
2023/10/27 10:44:15;;;;;;;10.50;4.37;;;13.40;99.90;;;;;;5028363;28;20178;-81
2023/10/27 10:46:44;;;;;;;10.07;4.03;;;13.40;99.90;;;;;;5037194;28;20208;-82
2023/10/27 10:49:22;;;;;;;11.33;4.67;;;13.50;99.90;;;;;;5036474;28;20197;-80
2023/10/27 10:51:55;;;;;;;9.37;4.33;;;13.40;99.90;;;;;;5038876;28;20176;-79
2023/10/27 10:54:29;;;;;;;9.40;4.07;;;13.50;99.90;;;;;;5040004;28;20190;-79
2023/10/27 10:57:05;;;;;;;12.83;5.03;;;13.50;99.90;;;;;;5039537;28;20260;-81
2023/10/27 10:59:31;;;;;;;12.37;3.77;;;13.50;99.90;;;;;;5036949;28;20573;-80
2023/10/27 11:02:00;;;;;;;9.33;4.30;;;13.50;99.90;;;;;;5038450;28;20192;-83
2023/10/27 11:04:33;;;;;;;7.00;3.57;;;13.50;99.90;;;;;;5038182;28;20172;-82
2023/10/27 11:07:01;;;;;;;10.10;4.43;;;13.50;99.90;;;;;;5036845;28;20276;-82
2023/10/27 11:09:27;;;;;;;11.67;3.60;;;13.50;99.90;;;;;;5037321;28;20606;-81
2023/10/27 11:11:54;;;;;;;13.60;4.17;;;13.60;99.90;;;;;;5036969;28;20258;-80
2023/10/27 11:14:20;;;;;;;9.43;3.77;;;13.60;99.90;;;;;;5036966;28;20178;-83
2023/10/27 11:17:00;;;;;;;8.10;3.57;;;13.60;99.90;;;;;;5038499;28;20625;-81
2023/10/27 11:19:27;;;;;;;7.17;3.57;;;13.70;99.90;;;;;;5040159;28;20284;-80
2023/10/27 11:21:54;;;;;;;11.40;4.27;;;13.80;99.90;;;;;;5038516;28;20192;-81
2023/10/27 11:24:21;;;;;;;10.40;4.40;;;13.80;99.90;;;;;;5038050;28;20170;-80
2023/10/27 11:26:47;;;;;;;9.37;3.93;;;13.50;99.90;;;;;;5018962;28;20207;-79
2023/10/27 11:29:13;;;;;;;13.67;4.60;;;13.70;99.90;;;;;;5014942;28;20182;-81
2023/10/27 11:31:42;;;;;;;9.43;3.50;;;13.90;99.90;;;;;;5014421;28;20181;-80
2023/10/27 11:34:09;;;;;;;12.67;3.63;;;14.00;99.90;;;;;;5014839;28;20175;-80
2023/10/27 11:36:35;;;;;;;9.47;3.83;;;14.10;99.90;;;;;;5015363;28;20595;-79
2023/10/27 11:39:21;;;;;;;9.53;3.30;;;14.10;99.90;;;;;;5014546;28;20174;-80
2023/10/27 11:41:55;;;;;;;12.63;4.00;;;14.20;99.90;;;;;;5016209;28;20657;-79
2023/10/27 11:44:21;;;;;;;10.47;4.40;;;14.30;99.90;;;;;;5015925;28;20175;-80
2023/10/27 11:46:51;;;;;;;11.00;3.60;;;14.20;99.90;;;;;;5014332;28;20248;-79
2023/10/27 11:49:17;;;;;;;7.90;3.47;;;14.30;99.90;;;;;;5015169;28;20182;-80
2023/10/27 11:51:43;;;;;;;7.80;3.37;;;14.30;99.90;;;;;;5014638;28;20192;-81
2023/10/27 11:54:09;;;;;;;11.47;3.97;;;14.40;99.90;;;;;;5015168;28;20561;-80
2023/10/27 11:56:35;;;;;;;8.17;3.30;;;14.40;99.90;;;;;;5014591;28;20222;-81
2023/10/27 11:59:00;;;;;;;6.57;3.10;;;14.40;99.90;;;;;;5016232;28;20171;-79
2023/10/27 12:01:26;;;;;;;10.47;3.67;;;14.60;99.90;;;;;;5015982;28;20167;-80
2023/10/27 12:03:52;;;;;;;8.63;2.70;;;14.70;99.50;;;;;;5016373;28;20170;-81
2023/10/27 12:06:20;;;;;;;5.60;2.30;;;14.80;95.00;;;;;;5015828;28;20219;-80
2023/10/27 12:08:45;;;;;;;8.83;2.67;;;14.90;91.40;;;;;;5017389;28;20220;-81
2023/10/27 12:11:14;;;;;;;5.83;1.77;;;15.20;88.40;;;;;;5016269;28;20172;-81
2023/10/27 12:13:40;;;;;;;4.27;1.80;;;15.10;77.90;;;;;;5016714;28;20190;-79
2023/10/27 12:16:06;;;;;;;5.33;1.87;;;15.30;73.90;;;;;;5014963;28;20503;-82
2023/10/27 12:18:32;;;;;;;5.63;2.23;;;15.30;71.90;;;;;;5014314;28;20513;-81
2023/10/27 12:21:00;;;;;;;4.83;1.50;;;15.20;68.10;;;;;;5016565;28;20267;-78
2023/10/27 12:23:29;;;;;;;4.87;1.83;;;15.10;59.70;;;;;;5015838;28;20187;-79
2023/10/27 12:25:57;;;;;;;6.10;1.77;;;15.00;59.70;;;;;;5019993;28;20209;-79
2023/10/27 12:28:27;;;;;;;6.20;1.77;;;15.00;65.10;;;;;;5017744;28;20213;-81
2023/10/27 12:30:54;;;;;;;5.47;2.10;;;15.10;64.30;;;;;;5017122;28;20171;-80
2023/10/27 12:33:21;;;;;;;5.30;1.30;;;15.20;65.10;;;;;;5015626;28;20163;-80
2023/10/27 12:35:54;;;;;;;3.63;1.40;;;15.10;57.80;;;;;;5015684;28;20175;-80
2023/10/27 12:38:26;;;;;;;2.83;1.37;;;15.00;61.10;;;;;;5017963;28;20642;-82
2023/10/27 12:40:55;;;;;;;3.33;1.27;;;14.90;64.10;;;;;;5017628;28;20255;-82
2023/10/27 12:43:21;;;;;;;4.87;1.67;;;14.80;63.40;;;;;;5016247;28;20180;-81